Latest Coastal Weather Observations for Bairnsdale

IDV60701

Issued at 7:21 am EDT Wednesday 4 March 2015 (issued every 10 minutes, with the page automatically refreshed every 10 minutes)

About coastal observations | Map of coastal stations | Coastal observations for VIC | Marine services | Other Formats
Station Details ID: 085279 Name: BAIRNSDALE AIRPORT Lat: -37.88 Lon: 147.57 Height: 49.4 m
Data from the previous 72 hours. | See also: Recent months at Bairnsdale
Date/Time
EDT
Temp

°C
Wind Pressure Rain
since 9am
mm
Weather Cloud Vis
km
Sea
Height
m
Swell
Dir
 
Speed
knots
Gust
knots
hPa Trend Height
m
Period
s
Dir
04/07:00am 13.0 WNW 5 7 1014.5 - 0.0 - Cloudy 10 - - - -
04/06:30am 12.6 WNW 5 7 1014.3 - 0.0 - Cloudy 10 - - - -
04/06:00am 12.4 WNW 5 6 1014.1 - 0.0 - Mostly cloudy 10 - - - -
04/05:30am 12.5 WNW 5 6 1013.9 - 0.0 - Partly cloudy 10 - - - -
04/05:00am 13.3 WNW 5 6 1013.7 - 0.0 - Partly cloudy 10 - - - -
04/04:30am 12.9 WNW 5 7 1013.6 - 0.0 - Cloudy 10 - - - -
04/04:00am 12.4 WNW 7 7 1013.6 - 0.0 - Cloudy 10 - - - -
04/03:30am 13.1 WNW 8 9 1013.7 - 0.0 - Cloudy 10 - - - -
04/03:00am 12.9 WNW 7 7 1014.0 - 0.0 - Cloudy 10 - - - -
04/02:30am 12.7 NW 7 8 1014.4 - 0.0 - Partly cloudy 10 - - - -
04/02:00am 12.5 NW 5 7 1014.8 - 0.0 - Partly cloudy 10 - - - -
04/01:30am 13.4 NW 5 6 1015.2 - 0.0 - Cloudy 10 - - - -
04/01:00am 13.0 NW 5 6 1015.5 - 0.0 - Cloudy 10 - - - -
04/12:30am 13.5 NW 5 6 1015.6 - 0.0 - Cloudy 10 - - - -
 
Date/Time
EDT
Temp

°C
Wind Pressure Rain
since 9am
mm
Weather Cloud Vis
km
Sea
Height
m
Swell
Dir
 
Speed
knots
Gust
knots
hPa Trend Height
m
Period
s
Dir
03/11:30pm 13.2 NW 4 5 1016.1 - 0.0 - Partly cloudy 10 - - - -
03/11:00pm 12.4 NNW 3 4 1016.2 - 0.0 - Partly cloudy 10 - - - -
03/10:30pm 12.5 CALM 0 0 1016.2 - 0.0 - Partly cloudy 10 - - - -
03/10:00pm 12.6 SSW 2 3 1016.3 - 0.0 - Partly cloudy 10 - - - -
03/09:30pm 12.9 S 4 4 1016.2 - 0.0 - - 10 - - - -
03/09:00pm 15.8 SE 4 4 1016.1 - 0.0 - - 10 - - - -
03/08:30pm 15.9 ESE 5 5 1015.7 - 0.0 - - 10 - - - -
03/08:00pm 16.6 ESE 6 7 1015.4 - 0.0 - - 10 - - - -
03/07:30pm 17.6 ESE 8 9 1015.2 - 0.0 - - 10 - - - -
03/07:00pm 18.5 ESE 9 12 1015.0 - 0.0 - - 10 - - - -
03/06:30pm 19.6 ESE 8 11 1014.9 - 0.0 - - 10 - - - -
03/06:00pm 19.8 ESE 9 12 1014.8 - 0.0 - - 10 - - - -
03/05:30pm 20.5 SE 9 11 1014.8 - 0.0 - - 10 - - - -
03/05:00pm 20.8 SE 8 11 1014.7 - 0.0 - - 10 - - - -
03/04:30pm 20.9 ESE 8 13 1014.9 - 0.0 - - 10 - - - -
03/04:00pm 20.5 SE 10 14 1015.0 - 0.0 - Partly cloudy 10 - - - -
03/03:30pm 19.6 SSE 11 15 1015.2 - 0.0 - Partly cloudy 10 - - - -
03/03:00pm 20.9 SSE 9 13 1015.4 - 0.0 - Partly cloudy 10 - - - -
03/02:30pm 20.8 SE 10 15 1015.8 - 0.0 - Partly cloudy 10 - - - -
03/02:00pm 21.6 SE 9 13 1016.0 - 0.0 - Partly cloudy 10 - - - -
03/01:30pm 20.0 SE 12 15 1016.1 - 0.0 - Partly cloudy 10 - - - -
03/01:00pm 20.2 S 10 13 1016.2 - 0.0 - Partly cloudy 10 - - - -
03/12:30pm 21.0 SSE 7 13 1016.6 - 0.0 - Partly cloudy 10 - - - -
03/12:00pm 21.3 SSW 6 9 1016.8 - 0.0 - Partly cloudy 10 - - - -
03/11:30am 21.1 W 6 8 1017.0 - 0.0 - Partly cloudy 10 - - - -
03/11:00am 21.1 SSW 7 11 1017.1 - 0.0 - - 10 - - - -
03/10:30am 19.5 SW 5 8 1016.9 - 0.0 - - 10 - - - -
03/10:00am 18.5 SW 7 9 1016.8 - 0.0 - - 10 - - - -
03/09:30am 17.4 WSW 4 6 1016.7 - 0.0 - - 10 - - - -
03/09:00am 16.3 NW 5 6 1016.7 - 0.0 - Partly cloudy 10 - - - -
03/08:30am 15.6 NW 5 6 1016.6 - 0.0 - - 10 - - - -
03/08:00am 15.2 NW 6 7 1016.4 - 0.0 - Partly cloudy 10 - - - -
03/07:30am 14.4 NW 7 8 1016.4 - 0.0 - Partly cloudy 10 - - - -
03/07:00am 14.1 NW 5 6 1015.5 - 0.0 - - 10 - - - -
03/06:30am 14.2 WNW 7 8 1015.3 - 0.0 - - 10 - - - -
03/06:00am 14.1 W 6 7 1014.8 - 0.0 - Cloudy 10 - - - -
03/05:30am 14.1 WNW 7 9 1014.6 - 0.0 - - 10 - - - -
03/05:00am 14.0 NW 5 7 1014.6 - 0.0 - - 10 - - - -
03/04:30am 14.1 WNW 5 6 1014.4 - 0.0 - - 10 - - - -
03/04:00am 14.6 SW 6 7 1014.1 - 0.0 - - 10 - - - -
03/03:30am 14.2 W 6 7 1014.4 - 0.0 - - 10 - - - -
03/03:00am 14.2 SW 3 4 1014.0 - 0.0 - Partly cloudy 10 - - - -
03/02:30am 14.3 W 4 8 1014.2 - 0.0 - - 10 - - - -
03/02:00am 14.2 WSW 3 4 1014.7 - 0.0 - - 10 - - - -
03/01:30am 14.4 NNW 6 7 1014.1 - 0.0 - - 10 - - - -
03/01:00am 13.9 SSW 4 6 1014.2 - 0.0 - - 10 - - - -
03/12:30am 14.3 NNW 7 8 1014.9 - 0.0 - - 10 - - - -
03/12:00am 14.9 CALM 0 0 1014.7 - 0.0 - Cloudy 10 - - - -
 
Date/Time
EDT
Temp

°C
Wind Pressure Rain
since 9am
mm
Weather Cloud Vis
km
Sea
Height
m
Swell
Dir
 
Speed
knots
Gust
knots
hPa Trend Height
m
Period
s
Dir
02/11:30pm 15.4 SSE 4 5 1014.6 - 0.0 - - 10 - - - -
02/11:00pm 15.0 NW 4 6 1015.5 - 0.0 - - 10 - - - -
02/10:30pm 15.4 CALM 0 0 1015.3 - 0.0 - - 10 - - - -
02/10:00pm 14.5 SW 4 5 1015.5 - 0.0 - - 10 - - - -
02/09:30pm 14.1 CALM 0 0 1015.6 - 0.0 - - 10 - - - -
02/09:00pm 14.5 CALM 0 0 1015.3 - 0.0 - Mostly cloudy 10 - - - -
02/08:30pm 16.1 SE 1 3 1014.8 - 0.0 - - 10 - - - -
02/08:00pm 17.5 ESE 3 4 1014.3 - 0.0 - - 10 - - - -
02/07:30pm 18.5 SE 5 7 1014.2 - 0.0 - - 10 - - - -
02/07:00pm 19.8 SE 6 8 1014.3 - 0.0 - - 10 - - - -
02/06:30pm 20.7 SE 5 8 1014.3 - 0.0 - - 10 - - - -
02/06:00pm 20.0 E 8 10 1014.0 - 0.0 - - 10 - - - -
02/05:30pm 20.5 E 12 15 1013.7 - 0.0 - - 10 - - - -
02/05:00pm 19.7 E 11 13 1014.0 - 0.0 - - 10 - - - -
02/04:30pm 19.7 ESE 10 13 1014.5 - 0.0 - - 10 - - - -
02/04:00pm 19.7 E 12 15 1014.9 - 0.0 - - 10 - - - -
02/03:30pm 19.9 ESE 11 15 1015.0 - 0.0 - - 10 - - - -
02/03:00pm 20.2 SE 13 17 1015.6 - 0.0 - - 10 - - - -
02/02:30pm 21.0 ESE 12 15 1015.6 - 0.0 - - 10 - - - -
02/02:00pm 21.6 ESE 11 15 1015.6 - 0.0 - - 10 - - - -
02/01:30pm 21.7 ESE 8 15 1016.0 - 0.0 - - 10 - - - -
02/01:00pm 21.1 NNE 4 7 1016.5 - 0.0 - - 10 - - - -
02/12:30pm 20.4 NE 6 10 1017.0 - 0.0 - - 10 - - - -
02/12:00pm 18.9 E 6 10 1017.8 - 0.0 - Mostly clear 10 - - - -
02/11:30am 19.0 NNE 6 10 1018.1 - 0.0 - - 10 - - - -
02/11:00am 18.3 ENE 6 9 1018.4 - 0.0 - Partly cloudy 10 - - - -
02/10:30am 18.0 ENE 8 11 1018.5 - 0.0 - - 10 - - - -
02/10:00am 17.4 SE 4 7 1018.5 - 0.0 - - 10 - - - -
02/09:30am 16.0 NE 2 4 1018.6 - 0.0 - - 10 - - - -
02/09:00am 14.2 NE 3 4 1018.9 - 0.0 - - 10 - - - -
02/08:30am 11.9 NNW 1 3 1019.0 - 0.0 - - 10 - - - -
02/08:00am 10.8 WNW 3 5 1019.0 - 0.0 - - - - - - -
02/07:30am 9.0 NW 5 5 1019.0 - 0.0 - - - - - - -
02/07:00am 8.3 N 4 5 1019.2 - 0.0 - - - - - - -
02/06:30am 8.3 NW 5 6 1018.7 - 0.0 - - - - - - -
02/06:00am 7.9 NW 6 7 1018.5 - 0.0 - - 10 - - - -
02/05:30am 8.1 NW 5 7 1018.6 - 0.0 - - 10 - - - -
02/05:00am 8.7 WNW 6 7 1018.6 - 0.0 - - 10 - - - -
02/04:30am 9.3 WNW 4 5 1018.7 - 0.0 - - 10 - - - -
02/04:00am 9.6 WSW 6 7 1018.8 - 0.0 - - 10 - - - -
02/03:30am 9.1 NW 6 7 1018.4 - 0.0 - - 10 - - - -
02/03:00am 10.3 WNW 6 7 1018.6 - 0.0 - Mostly clear 10 - - - -
02/02:30am 10.4 NW 5 6 1018.3 - 0.0 - Partly cloudy 10 - - - -
02/02:00am 9.6 NW 5 6 1018.3 - 0.0 - Partly cloudy 10 - - - -
02/01:30am 9.9 NW 5 6 1018.5 - 0.0 - Partly cloudy 10 - - - -
02/01:00am 10.1 NW 6 7 1018.5 - 0.0 - Partly cloudy 10 - - - -
02/12:30am 10.7 NW 6 7 1018.3 - 0.0 - - 10 - - - -
02/12:00am 10.2 NW 5 6 1018.1 - 0.0 - - 10 - - - -
 
Date/Time
EDT
Temp

°C
Wind Pressure Rain
since 9am
mm
Weather Cloud Vis
km
Sea
Height
m
Swell
Dir
 
Speed
knots
Gust
knots
hPa Trend Height
m
Period
s
Dir
01/11:30pm 11.0 NW 5 6 1017.9 - 0.0 - - 10 - - - -
01/11:00pm 12.5 WSW 5 6 1017.8 - 0.0 - - 10 - - - -
01/10:30pm 12.4 WSW 5 7 1017.9 - 0.0 - - 10 - - - -
01/10:00pm 13.9 SW 8 11 1017.9 - 0.0 - - 10 - - - -
01/09:30pm 13.6 SW 7 9 1017.8 - 0.0 - - 10 - - - -
01/09:00pm 14.0 SSW 8 10 1017.0 - 0.0 - - 10 - - - -
01/08:30pm 14.7 SSW 6 7 1016.7 - 0.0 - - 10 - - - -
01/08:00pm 16.8 S 10 13 1016.5 - 0.0 - - 10 - - - -
01/07:30pm 17.5 S 13 18 1016.0 - 0.0 - - 10 - - - -
01/07:00pm 18.2 S 13 17 1015.8 - 0.0 - - 10 - - - -
01/06:30pm 19.0 S 14 20 1015.5 - 0.0 - - 10 - - - -
01/06:00pm 19.5 S 14 19 1014.9 - 0.0 - Mostly clear 10 - - - -
01/05:30pm 20.0 SSW 14 20 1014.5 - 0.0 - Partly cloudy 10 - - - -
01/05:00pm 20.5 S 17 21 1014.1 - 0.0 - Partly cloudy 10 - - - -
01/04:30pm 21.1 SSW 17 22 1013.8 - 0.0 - Partly cloudy 10 - - - -
01/04:00pm 21.3 SSE 13 17 1013.2 - 0.0 - Partly cloudy 10 - - - -
01/03:30pm 20.6 SSE 13 17 1013.0 - 0.0 - Partly cloudy 10 - - - -
01/03:00pm 20.9 SW 13 18 1013.2 - 0.0 - Mostly cloudy 10 - - - -
01/02:30pm 20.9 SW 15 22 1012.9 - 0.0 - Partly cloudy 10 - - - -
01/02:00pm 22.0 SW 13 18 1012.7 - 0.0 - Partly cloudy 10 - - - -
01/01:30pm 20.9 SSW 13 17 1012.4 - 0.0 - Partly cloudy 10 - - - -
01/01:00pm 21.2 SW 13 18 1012.3 - 0.0 - Partly cloudy 10 - - - -
01/12:30pm 21.1 WSW 13 18 1012.1 - 0.0 - Partly cloudy 10 - - - -
01/12:00pm 20.0 WSW 13 21 1012.0 - 0.0 - Cloudy 10 - - - -
01/11:30am 19.7 WSW 12 19 1011.9 - 0.0 - Partly cloudy 10 - - - -
01/11:00am 18.8 WSW 13 18 1011.7 - 0.0 - Partly cloudy 10 - - - -
01/10:30am 18.1 WSW 11 15 1011.1 - 0.0 - Partly cloudy 10 - - - -
01/10:00am 17.0 W 11 15 1010.6 - 0.0 - Cloudy 10 - - - -
01/09:30am 16.3 W 10 14 1010.5 - 0.0 - Partly cloudy 10 - - - -
01/09:00am 16.0 W 9 11 1009.9 - 3.2 - Cloudy 10 - - - -
01/08:30am 15.5 W 8 10 1009.4 - 3.2 - Partly cloudy - - - - -
01/08:00am 15.2 WSW 7 11 1008.6 - 3.2 - Partly cloudy - - - - -
01/07:30am 15.2 WSW 12 19 1008.1 - 3.2 - Partly cloudy - - - - -

Other Formats:

Comma delimited format used in spreadsheet applications
http://www.bom.gov.au/fwo/IDV60701/IDV60701.94912.axf

JavaScript Object Notation format (JSON) in row-major order
http://www.bom.gov.au/fwo/IDV60701/IDV60701.94912.json